Helene — V7VF9 — position and weather

sailwx.info

Track history (hours):
 
Tides and Currents Weather Stations Pressure Air Temp Water Temp Dewpoint Dewpoint Depression Visibility Wind Speed Wind Dir Waves Ship Positions

Helene

Last reported at 2017-Jan-11 09:30 UTC. Time now 2017-Jan-21 04:13 UTC.
Position S 23°03' W 041°36'.
Warning: this ship's position is 9 days out of date.

Length 207 m; draft 10.2 m.

Type: Cargo ship. MMSI: 538006866.

Date/timePositionNaut miles runAvg speedWind from/ knotsBaromVisibWave heightAir tempDewpointWater temp
2017-Jan-11 09:30S 23°03' W 041°36'3812.9
2017-Jan-11 06:32S 23°20' W 042°14'16412.7
2017-Jan-10 17:33S 24°09' W 045°05'1414.0
2017-Jan-10 16:31S 24°13' W 045°20'1614.0
2017-Jan-10 15:24S 24°18' W 045°36'1213.7
2017-Jan-10 14:33S 24°16' W 045°49'1413.8
2017-Jan-10 13:33S 24°12' W 046°03'1413.6
2017-Jan-10 12:33S 24°07' W 046°17'8 8.3
2017-Jan-10 11:34S 23°59' W 046°17'5 3.7
2017-Jan-10 10:19S 23°55' W 046°21'0 0.0
2017-Jan-10 09:28S 23°55' W 046°21'0 0.0
2017-Jan-10 08:19S 23°55' W 046°21'0 0.0
2017-Jan-10 07:10S 23°55' W 046°21'0 0.0
2017-Jan-10 06:19S 23°55' W 046°21'0 0.0
2017-Jan-10 04:19S 23°55' W 046°21'0 0.0
2017-Jan-10 03:22S 23°55' W 046°21'0 0.0
2017-Jan-10 02:10S 23°55' W 046°21'0 0.0
2017-Jan-09 21:10S 23°55' W 046°21'0 0.0
2017-Jan-09 20:10S 23°55' W 046°21'0 0.0
2017-Jan-09 19:31S 23°55' W 046°21'0 0.0
2017-Jan-09 18:34S 23°55' W 046°21'0 0.0
2017-Jan-09 17:33S 23°55' W 046°21'0 0.0
2017-Jan-09 16:33S 23°55' W 046°21'5 5.0
2017-Jan-09 15:33S 23°60' W 046°18'7 7.2
2017-Jan-09 14:33S 24°06' W 046°22'6 6.2
2017-Jan-09 13:32S 24°11' W 046°18'0 0.0
2017-Jan-09 12:29S 24°11' W 046°18'5 5.6
2017-Jan-09 11:33S 24°14' W 046°23'1211.8
2017-Jan-09 10:34S 24°25' W 046°27'1110.9
2017-Jan-09 09:34S 24°35' W 046°31'1111.2
2017-Jan-09 08:34S 24°44' W 046°38'184 6.3
2017-Jan-08 03:30S 27°27' W 048°14'1311.7
2017-Jan-08 02:25S 27°40' W 048°13'  
2017-Jan-05 05:14S 34°47' W 057°30'913.0
2017-Jan-05 04:33S 34°45' W 057°40'9 9.0
2017-Jan-05 03:33S 34°44' W 057°51'0 0.0
2017-Jan-05 02:33S 34°44' W 057°51'0 0.1
2017-Jan-05 01:33S 34°44' W 057°51'0 0.2
2017-Jan-05 00:33S 34°44' W 057°52'0 0.2
2017-Jan-04 23:31S 34°44' W 057°51'0 0.0
2017-Jan-04 22:31S 34°44' W 057°51'0 0.1
2017-Jan-04 21:31S 34°44' W 057°51'0 0.1
2017-Jan-04 20:25S 34°44' W 057°51'0 0.0
2017-Jan-04 19:31S 34°44' W 057°51'0 0.0
2017-Jan-04 18:31S 34°44' W 057°51'0 0.0
2017-Jan-04 17:31S 34°44' W 057°51'0 0.0
2017-Jan-04 16:31S 34°44' W 057°51'11 5.5
2017-Jan-04 14:33S 34°39' W 058°03'7 7.1
2017-Jan-04 13:33S 34°37' W 058°11'9 0.8
2017-Jan-04 02:03S 34°35' W 058°22'0 0.0
2017-Jan-03 02:26S 34°35' W 058°22'0 0.0
2017-Jan-03 01:32S 34°35' W 058°22'0 0.0
2017-Jan-03 00:32S 34°35' W 058°22'0 0.0
2017-Jan-02 23:33S 34°35' W 058°22'1 0.6
2017-Jan-02 22:15S 34°35' W 058°22'5 7.6
2017-Jan-02 21:34S 34°37' W 058°15'1413.6
2017-Jan-02 20:34S 34°40' W 057°59'8 8.1
2017-Jan-02 19:33S 34°45' W 057°51'0 0.1
2017-Jan-02 18:32S 34°45' W 057°51'  
Track history (hours):
 
Tides and Currents Weather Stations Pressure Air Temp Water Temp Dewpoint Dewpoint Depression Visibility Wind Speed Wind Dir Waves Ship Positions

Helene

Last reported at 2017-Jan-11 09:30 UTC. Time now 2017-Jan-21 04:13 UTC.
Position S 23°03' W 041°36'.
Warning: this ship's position is 9 days out of date.

Length 207 m; draft 10.2 m.

Type: Cargo ship. MMSI: 538006866.

Date/timePositionNaut miles runAvg speedWind from/ knotsBaromVisibWave heightAir tempDewpointWater temp
2017-Jan-11 09:30S 23°03' W 041°36'3812.9
2017-Jan-11 06:32S 23°20' W 042°14'16412.7
2017-Jan-10 17:33S 24°09' W 045°05'1414.0
2017-Jan-10 16:31S 24°13' W 045°20'1614.0
2017-Jan-10 15:24S 24°18' W 045°36'1213.7
2017-Jan-10 14:33S 24°16' W 045°49'1413.8
2017-Jan-10 13:33S 24°12' W 046°03'1413.6
2017-Jan-10 12:33S 24°07' W 046°17'8 8.3
2017-Jan-10 11:34S 23°59' W 046°17'5 3.7
2017-Jan-10 10:19S 23°55' W 046°21'0 0.0
2017-Jan-10 09:28S 23°55' W 046°21'0 0.0
2017-Jan-10 08:19S 23°55' W 046°21'0 0.0
2017-Jan-10 07:10S 23°55' W 046°21'0 0.0
2017-Jan-10 06:19S 23°55' W 046°21'0 0.0
2017-Jan-10 04:19S 23°55' W 046°21'0 0.0
2017-Jan-10 03:22S 23°55' W 046°21'0 0.0
2017-Jan-10 02:10S 23°55' W 046°21'0 0.0
2017-Jan-09 21:10S 23°55' W 046°21'0 0.0
2017-Jan-09 20:10S 23°55' W 046°21'0 0.0
2017-Jan-09 19:31S 23°55' W 046°21'0 0.0
2017-Jan-09 18:34S 23°55' W 046°21'0 0.0
2017-Jan-09 17:33S 23°55' W 046°21'0 0.0
2017-Jan-09 16:33S 23°55' W 046°21'5 5.0
2017-Jan-09 15:33S 23°60' W 046°18'7 7.2
2017-Jan-09 14:33S 24°06' W 046°22'6 6.2
2017-Jan-09 13:32S 24°11' W 046°18'0 0.0
2017-Jan-09 12:29S 24°11' W 046°18'5 5.6
2017-Jan-09 11:33S 24°14' W 046°23'1211.8
2017-Jan-09 10:34S 24°25' W 046°27'1110.9
2017-Jan-09 09:34S 24°35' W 046°31'1111.2
2017-Jan-09 08:34S 24°44' W 046°38'184 6.3
2017-Jan-08 03:30S 27°27' W 048°14'1311.7
2017-Jan-08 02:25S 27°40' W 048°13'  
2017-Jan-05 05:14S 34°47' W 057°30'913.0
2017-Jan-05 04:33S 34°45' W 057°40'9 9.0
2017-Jan-05 03:33S 34°44' W 057°51'0 0.0
2017-Jan-05 02:33S 34°44' W 057°51'0 0.1
2017-Jan-05 01:33S 34°44' W 057°51'0 0.2
2017-Jan-05 00:33S 34°44' W 057°52'0 0.2
2017-Jan-04 23:31S 34°44' W 057°51'0 0.0
2017-Jan-04 22:31S 34°44' W 057°51'0 0.1
2017-Jan-04 21:31S 34°44' W 057°51'0 0.1
2017-Jan-04 20:25S 34°44' W 057°51'0 0.0
2017-Jan-04 19:31S 34°44' W 057°51'0 0.0
2017-Jan-04 18:31S 34°44' W 057°51'0 0.0
2017-Jan-04 17:31S 34°44' W 057°51'0 0.0
2017-Jan-04 16:31S 34°44' W 057°51'11 5.5
2017-Jan-04 14:33S 34°39' W 058°03'7 7.1
2017-Jan-04 13:33S 34°37' W 058°11'9 0.8
2017-Jan-04 02:03S 34°35' W 058°22'0 0.0
2017-Jan-03 02:26S 34°35' W 058°22'0 0.0
2017-Jan-03 01:32S 34°35' W 058°22'0 0.0
2017-Jan-03 00:32S 34°35' W 058°22'0 0.0
2017-Jan-02 23:33S 34°35' W 058°22'1 0.6
2017-Jan-02 22:15S 34°35' W 058°22'5 7.6
2017-Jan-02 21:34S 34°37' W 058°15'1413.6
2017-Jan-02 20:34S 34°40' W 057°59'8 8.1
2017-Jan-02 19:33S 34°45' W 057°51'0 0.1
2017-Jan-02 18:32S 34°45' W 057°51'  

Dump ship's entire track history